Orbital elements of FENGYUN 1C DEB
| Launched | 9 May 1999 |
| Flight ended | – |
| Launch site | Taiyuan Space Center, PRC |
| Owner | People's Republic of China |
| NORAD ID | 30718 |
| Date fetched |
Epoch osculation |
Inc. [°] |
Ecc. | RA asc node [hr] |
Arg Peri. [°] |
Mean anom [°] |
Mean motion [rev/day] |
Abs. mag |
| Date fetched |
Epoch osculation |
Inc. [°] |
Ecc. | RA asc node [hr] |
Arg Peri. [°] |
Mean anom [°] |
Mean motion [rev/day] |
Abs. mag |
| 2026 May 08 17:57 | 2026 May 04 15:56:37 | 98.8809 | 0.00579 | 14.1189 | 105.6768 | 255.0811 | 14.25353 | – |
| 2026 May 07 17:58 | 2026 May 04 15:56:37 | 98.8809 | 0.00579 | 14.1189 | 105.6768 | 255.0811 | 14.25353 | – |
| 2026 May 06 17:57 | 2026 May 04 15:56:37 | 98.8809 | 0.00579 | 14.1189 | 105.6768 | 255.0811 | 14.25353 | – |
| 2026 May 05 17:57 | 2026 May 04 15:56:37 | 98.8809 | 0.00579 | 14.1189 | 105.6768 | 255.0811 | 14.25353 | – |
| 2026 May 04 17:57 | 2026 Apr 29 11:16:15 | 98.8808 | 0.00583 | 13.7683 | 120.1052 | 255.0811 | 14.25353 | – |
| 2026 May 03 17:57 | 2026 Apr 29 11:16:15 | 98.8808 | 0.00583 | 13.7683 | 120.1052 | 255.0811 | 14.25353 | – |
| 2026 May 02 17:57 | 2026 Apr 29 11:16:15 | 98.8808 | 0.00583 | 13.7683 | 120.1052 | 255.0811 | 14.25353 | – |
| 2026 May 01 17:56 | 2026 Apr 29 11:16:15 | 98.8808 | 0.00583 | 13.7683 | 120.1052 | 255.0811 | 14.25353 | – |
| 2026 Apr 30 17:56 | 2026 Apr 29 11:16:15 | 98.8808 | 0.00583 | 13.7683 | 120.1052 | 255.0811 | 14.25353 | – |
| 2026 Apr 29 17:57 | 2026 Apr 24 11:38:56 | 98.8804 | 0.00585 | 13.4319 | 133.8834 | 255.0811 | 14.25353 | – |
| 2026 Apr 28 17:56 | 2026 Apr 24 11:38:56 | 98.8804 | 0.00585 | 13.4319 | 133.8834 | 255.0811 | 14.25353 | – |
| 2026 Apr 27 17:58 | 2026 Apr 24 11:38:56 | 98.8804 | 0.00585 | 13.4319 | 133.8834 | 255.0811 | 14.25353 | – |
| 2026 Apr 26 17:58 | 2026 Apr 24 11:38:56 | 98.8804 | 0.00585 | 13.4319 | 133.8834 | 255.0811 | 14.25353 | – |
| 2026 Apr 25 17:58 | 2026 Apr 24 11:38:56 | 98.8804 | 0.00585 | 13.4319 | 133.8834 | 255.0811 | 14.25353 | – |
| 2026 Apr 24 17:59 | 2026 Apr 24 11:38:56 | 98.8804 | 0.00585 | 13.4319 | 133.8834 | 255.0811 | 14.25353 | – |
| 2026 Apr 23 17:57 | 2026 Apr 17 16:13:01 | 98.8805 | 0.00586 | 12.9724 | 152.6978 | 255.0811 | 14.25353 | – |
| 2026 Apr 22 17:57 | 2026 Apr 17 16:13:01 | 98.8805 | 0.00586 | 12.9724 | 152.6978 | 255.0811 | 14.25353 | – |
| 2026 Apr 21 17:57 | 2026 Apr 17 16:13:01 | 98.8805 | 0.00586 | 12.9724 | 152.6978 | 255.0811 | 14.25353 | – |
| 2026 Apr 20 17:57 | 2026 Apr 17 16:13:01 | 98.8805 | 0.00586 | 12.9724 | 152.6978 | 255.0811 | 14.25353 | – |
| 2026 Apr 19 17:58 | 2026 Apr 17 16:13:01 | 98.8805 | 0.00586 | 12.9724 | 152.6978 | 255.0811 | 14.25353 | – |
| 2026 Apr 18 17:56 | 2026 Apr 13 04:23:00 | 98.8802 | 0.00585 | 12.6692 | 165.1383 | 255.0811 | 14.25353 | – |
| 2026 Apr 16 17:57 | 2026 Apr 13 04:23:00 | 98.8802 | 0.00585 | 12.6692 | 165.1383 | 255.0811 | 14.25353 | – |
| 2026 Apr 14 17:57 | 2026 Apr 13 04:23:00 | 98.8802 | 0.00585 | 12.6692 | 165.1383 | 255.0811 | 14.25353 | – |
| 2026 Apr 13 17:57 | 2026 Apr 13 04:23:00 | 98.8802 | 0.00585 | 12.6692 | 165.1383 | 255.0811 | 14.25353 | – |
| 2026 Apr 12 17:57 | 2026 Apr 08 04:45:13 | 98.8795 | 0.00582 | 12.3328 | 178.9471 | 255.0811 | 14.25353 | – |
| 2026 Apr 11 17:57 | 2026 Apr 08 04:45:13 | 98.8795 | 0.00582 | 12.3328 | 178.9471 | 255.0811 | 14.25353 | – |